Time;durP1;ratioP1;P1;durP2;ratioP2;P2;SDS_P1;SDS_P2;PMS_P1;PMS_P2;Temp;Humidity;BMP_temperature;BMP_pressure;BME280_temperature;BME280_humidity;BME280_pressure;Samples;Min_cycle;Max_cycle;Signal;HPM_P1;HPM_P2
2023/04/16 00:00:43;;;;;;;21.13;13.20;;;8.30;99.90;;;;;;5080149;28;20248;-79
2023/04/16 00:03:08;;;;;;;22.73;14.13;;;8.30;99.90;;;;;;5079131;28;20181;-79
2023/04/16 00:05:34;;;;;;;22.23;15.00;;;8.30;99.90;;;;;;5096148;28;20173;-81
2023/04/16 00:07:59;;;;;;;21.90;14.53;;;8.30;99.90;;;;;;5078494;28;20198;-79
2023/04/16 00:10:25;;;;;;;20.87;14.37;;;8.30;99.90;;;;;;5096708;28;20181;-78
2023/04/16 00:12:50;;;;;;;23.50;15.10;;;8.30;99.90;;;;;;5078924;28;20233;-79
2023/04/16 00:15:16;;;;;;;22.90;15.40;;;8.30;99.90;;;;;;5078962;28;20175;-79
2023/04/16 00:17:42;;;;;;;21.87;15.50;;;8.30;99.90;;;;;;5096750;28;20177;-79
2023/04/16 00:20:08;;;;;;;25.33;16.70;;;8.30;99.90;;;;;;5096523;28;20192;-79
2023/04/16 00:22:33;;;;;;;23.60;16.17;;;8.30;99.90;;;;;;5078634;28;20185;-79
2023/04/16 00:24:59;;;;;;;24.93;17.30;;;8.30;99.90;;;;;;5078899;28;20222;-79
2023/04/16 00:27:24;;;;;;;24.23;16.00;;;8.40;99.90;;;;;;5078659;28;20675;-78
2023/04/16 00:29:50;;;;;;;25.80;17.20;;;8.30;99.90;;;;;;5096714;28;20200;-79
2023/04/16 00:32:15;;;;;;;26.13;17.90;;;8.40;99.90;;;;;;5096629;28;20165;-79
2023/04/16 00:34:41;;;;;;;25.63;16.80;;;8.40;99.90;;;;;;5096795;28;20174;-80
2023/04/16 00:37:06;;;;;;;25.53;16.30;;;8.40;99.90;;;;;;5077839;28;20172;-79
2023/04/16 00:39:32;;;;;;;29.80;18.10;;;8.40;99.90;;;;;;5096638;28;20226;-79
2023/04/16 00:41:57;;;;;;;25.30;16.73;;;8.40;99.90;;;;;;5077955;28;20198;-79
2023/04/16 00:44:23;;;;;;;29.40;17.37;;;8.40;99.90;;;;;;5078165;28;20199;-78
2023/04/16 00:46:49;;;;;;;26.50;17.43;;;8.40;99.90;;;;;;5096412;28;20168;-79
2023/04/16 00:49:15;;;;;;;26.30;17.83;;;8.40;99.90;;;;;;5096288;28;20191;-79
2023/04/16 00:51:41;;;;;;;28.33;18.10;;;8.40;99.90;;;;;;5095656;28;20256;-79
2023/04/16 00:54:06;;;;;;;27.60;17.90;;;8.40;99.90;;;;;;5077648;28;20179;-79
2023/04/16 00:56:34;;;;;;;26.23;17.20;;;8.40;99.90;;;;;;5096271;28;20243;-79
2023/04/16 00:58:59;;;;;;;26.57;17.10;;;8.40;99.90;;;;;;5077759;28;20264;-78
2023/04/16 01:01:25;;;;;;;26.37;17.87;;;8.40;99.90;;;;;;5077714;28;20171;-79
2023/04/16 01:03:51;;;;;;;26.27;17.40;;;8.40;99.90;;;;;;5095723;28;20297;-79
2023/04/16 01:06:17;;;;;;;27.07;17.23;;;8.40;99.90;;;;;;5077466;28;20180;-79
2023/04/16 01:08:43;;;;;;;27.40;17.30;;;8.40;99.90;;;;;;5077587;28;20235;-80
2023/04/16 01:11:14;;;;;;;25.93;17.73;;;8.40;99.90;;;;;;5077195;28;20257;-79
2023/04/16 01:13:39;;;;;;;27.23;16.90;;;8.40;99.90;;;;;;5077387;28;20660;-79
2023/04/16 01:16:10;;;;;;;26.77;17.27;;;8.40;99.90;;;;;;5077482;28;20274;-79
2023/04/16 01:18:36;;;;;;;27.43;17.57;;;8.40;99.90;;;;;;5077275;28;20199;-79
2023/04/16 01:21:02;;;;;;;26.13;17.63;;;8.40;99.90;;;;;;5076745;28;20201;-79
2023/04/16 01:23:28;;;;;;;25.80;17.63;;;8.40;99.90;;;;;;5095497;28;20221;-77
2023/04/16 01:25:54;;;;;;;25.13;17.20;;;8.40;99.90;;;;;;5095909;28;20177;-79
2023/04/16 01:28:20;;;;;;;25.97;17.57;;;8.40;99.90;;;;;;5095496;28;20193;-79
2023/04/16 01:30:45;;;;;;;26.17;17.87;;;8.40;99.90;;;;;;5095547;28;20189;-79
2023/04/16 01:33:12;;;;;;;25.97;17.07;;;8.30;99.90;;;;;;5077066;28;20175;-78
2023/04/16 01:35:39;;;;;;;26.07;17.77;;;8.40;99.90;;;;;;5076791;28;20171;-78
2023/04/16 01:38:06;;;;;;;27.23;18.10;;;8.40;99.90;;;;;;5095158;28;20204;-78
2023/04/16 01:40:32;;;;;;;25.83;18.03;;;8.40;99.90;;;;;;5076289;28;20562;-79
2023/04/16 01:42:58;;;;;;;28.23;17.80;;;8.40;99.90;;;;;;5095194;28;20178;-80
2023/04/16 01:45:24;;;;;;;27.50;17.63;;;8.50;99.90;;;;;;5077095;28;20213;-79
2023/04/16 01:47:50;;;;;;;28.70;18.53;;;8.40;99.90;;;;;;5095104;28;20603;-81
2023/04/16 01:50:17;;;;;;;28.37;18.77;;;8.40;99.90;;;;;;5094953;28;20174;-79
2023/04/16 01:52:43;;;;;;;29.07;17.97;;;8.40;99.90;;;;;;5077217;28;20187;-79
2023/04/16 01:55:09;;;;;;;28.87;18.87;;;8.40;99.90;;;;;;5077397;28;20250;-79
2023/04/16 01:57:35;;;;;;;26.73;17.83;;;8.40;99.90;;;;;;5095844;28;20186;-79
2023/04/16 02:00:01;;;;;;;26.30;18.30;;;8.40;99.90;;;;;;5077370;28;20207;-79
2023/04/16 02:02:27;;;;;;;26.60;18.20;;;8.40;99.90;;;;;;5096048;28;20197;-79
2023/04/16 02:04:54;;;;;;;27.20;19.20;;;8.40;99.90;;;;;;5095882;28;20215;-79
2023/04/16 02:07:20;;;;;;;26.23;18.07;;;8.40;99.90;;;;;;5095872;28;20179;-79
2023/04/16 02:09:45;;;;;;;28.37;18.47;;;8.30;99.90;;;;;;5077388;28;20197;-80
2023/04/16 02:12:11;;;;;;;28.43;18.23;;;8.40;99.90;;;;;;5078509;28;20185;-79
2023/04/16 02:14:37;;;;;;;26.13;18.90;;;8.40;99.90;;;;;;5096197;28;20180;-79
2023/04/16 02:17:03;;;;;;;29.13;19.80;;;8.40;99.90;;;;;;5095769;28;20206;-79
2023/04/16 02:19:29;;;;;;;32.10;20.23;;;8.40;99.90;;;;;;5077067;28;20671;-79
2023/04/16 02:21:54;;;;;;;27.43;19.67;;;8.40;99.90;;;;;;5095747;28;20178;-79
2023/04/16 02:24:20;;;;;;;28.37;19.43;;;8.40;99.90;;;;;;5096206;28;20208;-79
2023/04/16 02:26:46;;;;;;;30.23;20.13;;;8.40;99.90;;;;;;5078303;28;20183;-79
2023/04/16 02:29:12;;;;;;;32.17;21.20;;;8.30;99.90;;;;;;5078192;28;20570;-81
2023/04/16 02:31:38;;;;;;;30.70;20.00;;;8.40;99.90;;;;;;5081077;28;20264;-79
2023/04/16 02:34:04;;;;;;;34.33;21.50;;;8.40;99.90;;;;;;5100246;28;20209;-79
2023/04/16 02:36:31;;;;;;;30.73;20.53;;;8.30;99.90;;;;;;5099538;28;20541;-79
2023/04/16 02:38:57;;;;;;;35.00;22.20;;;8.30;99.90;;;;;;5098793;28;20205;-79
2023/04/16 02:41:23;;;;;;;30.63;20.70;;;8.40;99.90;;;;;;5081068;28;20755;-79
2023/04/16 02:43:49;;;;;;;31.63;21.40;;;8.30;99.90;;;;;;5081703;28;20231;-79
2023/04/16 02:46:14;;;;;;;31.97;21.00;;;8.30;99.90;;;;;;5099109;28;20178;-79
2023/04/16 02:48:40;;;;;;;32.43;21.00;;;8.30;99.90;;;;;;5098850;28;20705;-78
2023/04/16 02:51:05;;;;;;;29.60;21.17;;;8.30;99.90;;;;;;5080292;28;20178;-79
2023/04/16 02:53:31;;;;;;;30.23;20.13;;;8.30;99.90;;;;;;5081127;28;20260;-79
2023/04/16 02:55:56;;;;;;;30.30;20.80;;;8.30;99.90;;;;;;5081017;28;20185;-79
2023/04/16 02:58:24;;;;;;;30.57;20.93;;;8.30;99.90;;;;;;5098673;28;20198;-79
2023/04/16 03:00:51;;;;;;;34.60;21.80;;;8.30;99.90;;;;;;5079918;28;20638;-79
2023/04/16 03:03:16;;;;;;;31.07;21.13;;;8.30;99.90;;;;;;5098824;28;20186;-78
2023/04/16 03:05:42;;;;;;;34.40;21.93;;;8.30;99.90;;;;;;5097972;28;20262;-78
2023/04/16 03:08:08;;;;;;;33.63;21.93;;;8.30;99.90;;;;;;5080234;28;20187;-79
2023/04/16 03:10:35;;;;;;;33.60;22.60;;;8.30;99.90;;;;;;5079868;28;20590;-79
2023/04/16 03:13:01;;;;;;;29.33;20.60;;;8.30;99.90;;;;;;5097637;28;20157;-78
2023/04/16 03:15:27;;;;;;;28.83;20.30;;;8.30;99.90;;;;;;5097787;28;20172;-79
2023/04/16 03:17:52;;;;;;;35.97;21.47;;;8.30;99.90;;;;;;5079688;28;20225;-78
2023/04/16 03:20:18;;;;;;;34.87;21.37;;;8.30;99.90;;;;;;5096894;28;20171;-78
2023/04/16 03:22:45;;;;;;;31.40;20.80;;;8.30;99.90;;;;;;5097568;28;20239;-79
2023/04/16 03:25:11;;;;;;;31.70;21.47;;;8.30;99.90;;;;;;5096355;28;20197;-79
2023/04/16 03:27:38;;;;;;;31.47;20.87;;;8.30;99.90;;;;;;5097698;28;20255;-79
2023/04/16 03:30:05;;;;;;;33.67;21.33;;;8.30;99.90;;;;;;5092658;28;20205;-79
2023/04/16 03:32:30;;;;;;;31.30;21.77;;;8.30;99.90;;;;;;5081145;28;20178;-78
2023/04/16 03:34:56;;;;;;;32.30;22.00;;;8.30;99.90;;;;;;5079594;28;20262;-78
2023/04/16 03:37:22;;;;;;;33.57;21.67;;;8.30;99.90;;;;;;5097762;28;20213;-79
2023/04/16 03:39:48;;;;;;;31.90;21.87;;;8.20;99.90;;;;;;5079188;28;20214;-79
2023/04/16 03:42:13;;;;;;;30.93;21.33;;;8.20;99.90;;;;;;5097588;28;20191;-78
2023/04/16 03:44:39;;;;;;;30.47;21.27;;;8.30;99.90;;;;;;5097591;28;20199;-79
2023/04/16 03:47:05;;;;;;;32.97;21.30;;;8.30;99.90;;;;;;5078992;28;20196;-78
2023/04/16 03:49:30;;;;;;;31.67;21.20;;;8.20;99.90;;;;;;5090578;28;20304;-79
2023/04/16 03:51:56;;;;;;;33.23;21.57;;;8.20;99.90;;;;;;5096278;28;20178;-79
2023/04/16 03:54:21;;;;;;;30.97;21.63;;;8.20;99.90;;;;;;5096198;28;20231;-79
2023/04/16 03:56:47;;;;;;;32.27;21.37;;;8.20;99.90;;;;;;5096859;28;20185;-79
2023/04/16 03:59:12;;;;;;;31.93;21.37;;;8.20;99.90;;;;;;5097408;28;20198;-79
2023/04/16 04:01:38;;;;;;;33.03;21.20;;;8.20;99.90;;;;;;5096784;28;20194;-79
2023/04/16 04:04:03;;;;;;;31.73;21.27;;;8.20;99.90;;;;;;5095891;28;20217;-78
2023/04/16 04:06:29;;;;;;;34.60;21.20;;;8.20;99.90;;;;;;5097271;28;20174;-79
2023/04/16 04:08:55;;;;;;;33.07;21.07;;;8.20;99.90;;;;;;5096732;28;20263;-79
2023/04/16 04:11:21;;;;;;;29.73;20.17;;;8.20;99.90;;;;;;5095161;28;20217;-79
2023/04/16 04:13:46;;;;;;;31.57;21.57;;;8.10;99.90;;;;;;5097045;28;20182;-79
2023/04/16 04:16:12;;;;;;;30.40;20.30;;;8.10;99.90;;;;;;5097165;28;20181;-79
2023/04/16 04:18:37;;;;;;;33.17;21.33;;;8.10;99.90;;;;;;5079106;28;20246;-79
2023/04/16 04:21:07;;;;;;;31.37;19.53;;;8.10;99.90;;;;;;5078720;28;20220;-79
2023/04/16 04:23:33;;;;;;;27.97;19.33;;;8.20;99.90;;;;;;5096992;28;20202;-78
2023/04/16 04:26:02;;;;;;;29.63;19.97;;;8.20;99.90;;;;;;5078694;28;20177;-79
2023/04/16 04:28:31;;;;;;;30.30;19.47;;;8.20;99.90;;;;;;5078492;28;20688;-78
2023/04/16 04:30:57;;;;;;;26.17;18.87;;;8.20;99.90;;;;;;5078305;28;20264;-79
2023/04/16 04:33:27;;;;;;;27.20;19.07;;;8.10;99.90;;;;;;5078127;28;20636;-78
2023/04/16 04:35:53;;;;;;;27.03;19.17;;;8.10;99.90;;;;;;5078980;28;20178;-79
2023/04/16 04:38:20;;;;;;;29.47;19.97;;;8.10;99.90;;;;;;5120503;22;20210;-79
2023/04/16 04:40:47;;;;;;;25.30;18.03;;;8.10;99.90;;;;;;5054020;28;20184;-80
2023/04/16 04:43:12;;;;;;;25.73;18.07;;;8.10;99.90;;;;;;5041635;28;20174;-81
2023/04/16 04:45:38;;;;;;;24.87;17.97;;;8.10;99.90;;;;;;5053086;28;20228;-80
2023/04/16 04:48:04;;;;;;;25.40;17.93;;;8.20;99.90;;;;;;5039483;28;20178;-81
2023/04/16 04:50:30;;;;;;;26.73;17.77;;;8.20;99.90;;;;;;5034851;28;20214;-81
2023/04/16 04:52:55;;;;;;;23.90;17.07;;;8.20;99.90;;;;;;5032222;28;20603;-82
2023/04/16 04:55:21;;;;;;;21.80;16.07;;;8.10;99.90;;;;;;5034462;28;20180;-79
2023/04/16 04:57:48;;;;;;;25.60;15.80;;;8.10;99.90;;;;;;5036451;28;20179;-80
2023/04/16 05:00:13;;;;;;;17.93;13.33;;;8.30;99.90;;;;;;5047278;28;20208;-79
2023/04/16 05:02:39;;;;;;;19.57;14.30;;;8.40;99.90;;;;;;5039599;28;20180;-79
2023/04/16 05:05:05;;;;;;;19.07;14.23;;;8.70;99.90;;;;;;5040368;28;20192;-80
2023/04/16 05:07:31;;;;;;;21.30;14.83;;;8.80;99.90;;;;;;5035065;28;20180;-81
2023/04/16 05:09:56;;;;;;;20.27;14.53;;;8.90;99.90;;;;;;5033771;28;20215;-82
2023/04/16 05:12:22;;;;;;;18.77;13.77;;;8.80;99.90;;;;;;5033925;28;20173;-81
2023/04/16 05:14:47;;;;;;;19.33;14.13;;;8.70;99.90;;;;;;5038281;28;20220;-80
2023/04/16 05:17:13;;;;;;;19.03;14.33;;;8.50;99.90;;;;;;5035231;28;20182;-81
2023/04/16 05:19:38;;;;;;;17.63;13.43;;;8.40;99.90;;;;;;5036111;28;20218;-80
2023/04/16 05:22:04;;;;;;;16.70;12.53;;;8.50;99.90;;;;;;5035790;28;20184;-79
2023/04/16 05:24:30;;;;;;;16.40;12.23;;;8.50;99.90;;;;;;5037349;28;20213;-80
2023/04/16 05:26:56;;;;;;;16.30;12.13;;;8.50;99.90;;;;;;5033721;28;20221;-82
2023/04/16 05:29:21;;;;;;;18.30;13.03;;;8.50;99.90;;;;;;5032070;28;20676;-81
2023/04/16 05:31:47;;;;;;;15.97;12.60;;;8.50;99.90;;;;;;5033729;28;20176;-81
2023/04/16 05:34:12;;;;;;;17.90;12.43;;;8.50;99.90;;;;;;5033302;28;20184;-82
2023/04/16 05:36:38;;;;;;;16.93;12.33;;;8.40;99.90;;;;;;5048219;28;20172;-82
2023/04/16 05:39:04;;;;;;;14.90;11.80;;;8.40;99.90;;;;;;5033314;28;20276;-81
2023/04/16 05:41:29;;;;;;;15.10;11.70;;;8.30;99.90;;;;;;5033502;28;20246;-82
2023/04/16 05:43:55;;;;;;;15.50;11.20;;;8.30;99.90;;;;;;5032342;28;20303;-82
2023/04/16 05:46:20;;;;;;;15.03;10.63;;;8.30;99.90;;;;;;5033133;28;20188;-82
2023/04/16 05:48:46;;;;;;;14.33;10.97;;;8.30;99.90;;;;;;5033027;28;20285;-82
2023/04/16 05:51:11;;;;;;;12.97;10.03;;;8.30;99.90;;;;;;5032750;28;20205;-82
2023/04/16 05:53:37;;;;;;;14.50;10.63;;;8.30;99.90;;;;;;5033022;28;20185;-82
2023/04/16 05:56:03;;;;;;;13.43;10.30;;;8.30;99.90;;;;;;5031329;28;20175;-82
2023/04/16 05:58:28;;;;;;;13.00;9.80;;;8.30;99.90;;;;;;5033148;28;20258;-82
2023/04/16 06:00:54;;;;;;;14.40;10.10;;;8.30;99.90;;;;;;5032782;28;20227;-82
2023/04/16 06:03:19;;;;;;;12.47;9.47;;;8.30;99.90;;;;;;5031243;28;20176;-83
2023/04/16 06:05:45;;;;;;;12.70;9.43;;;8.40;99.90;;;;;;5047470;28;20184;-81
2023/04/16 06:08:10;;;;;;;10.93;8.87;;;8.40;99.90;;;;;;5032650;28;20209;-82
2023/04/16 06:10:36;;;;;;;12.77;9.30;;;8.30;99.90;;;;;;5031639;28;20201;-80
2023/04/16 06:13:02;;;;;;;12.30;8.93;;;8.40;99.90;;;;;;5033920;28;20187;-81
2023/04/16 06:15:28;;;;;;;11.23;8.73;;;8.30;99.90;;;;;;5033695;28;20188;-82
2023/04/16 06:17:54;;;;;;;10.57;8.83;;;8.30;99.90;;;;;;5049091;28;20187;-81
2023/04/16 06:20:20;;;;;;;10.00;7.90;;;8.30;99.90;;;;;;5048579;28;20695;-83
2023/04/16 06:22:46;;;;;;;9.77;8.13;;;8.40;99.90;;;;;;5039519;28;20275;-80
2023/04/16 06:25:11;;;;;;;10.47;8.63;;;8.30;99.90;;;;;;5041421;28;20203;-81
2023/04/16 06:27:37;;;;;;;10.37;8.37;;;8.40;99.90;;;;;;5052703;28;20183;-79
2023/04/16 06:30:03;;;;;;;11.10;9.13;;;8.40;99.90;;;;;;5035638;28;20749;-82
2023/04/16 06:32:29;;;;;;;10.33;8.47;;;8.30;99.90;;;;;;5032977;28;20179;-83
2023/04/16 06:34:57;;;;;;;12.80;8.80;;;8.40;99.90;;;;;;5032717;28;20183;-84
2023/04/16 06:37:23;;;;;;;10.83;8.53;;;8.40;99.90;;;;;;5032217;28;20184;-82
2023/04/16 06:39:48;;;;;;;11.07;8.30;;;8.50;99.90;;;;;;5046619;28;20218;-81
2023/04/16 06:42:14;;;;;;;10.57;8.70;;;8.50;99.90;;;;;;5031169;28;20553;-82
2023/04/16 06:44:39;;;;;;;9.97;8.17;;;8.40;99.90;;;;;;5030851;28;20216;-82
2023/04/16 06:47:05;;;;;;;10.53;8.50;;;8.40;99.90;;;;;;5030996;28;20185;-83
2023/04/16 06:49:30;;;;;;;9.93;8.43;;;8.50;99.90;;;;;;5032043;28;20194;-82
2023/04/16 06:51:56;;;;;;;10.10;8.33;;;8.50;99.90;;;;;;5030777;28;20176;-82
2023/04/16 06:54:22;;;;;;;9.93;8.30;;;8.50;99.90;;;;;;5032279;28;20182;-83
2023/04/16 06:56:47;;;;;;;10.90;8.93;;;8.50;99.90;;;;;;5047549;28;20261;-82
2023/04/16 06:59:13;;;;;;;9.90;8.03;;;8.60;99.90;;;;;;5031851;28;20205;-83
2023/04/16 07:01:40;;;;;;;10.07;7.73;;;8.60;99.90;;;;;;5032000;28;20179;-82
2023/04/16 07:04:05;;;;;;;9.77;7.77;;;8.60;99.90;;;;;;5031760;28;20683;-81
2023/04/16 07:06:31;;;;;;;8.60;7.50;;;8.60;99.90;;;;;;5032282;28;20185;-83
2023/04/16 07:08:56;;;;;;;10.57;8.67;;;8.70;99.90;;;;;;5031697;28;20203;-85
2023/04/16 07:11:22;;;;;;;21.03;14.97;;;8.70;99.90;;;;;;5030194;28;20205;-85
2023/04/16 07:13:49;;;;;;;15.07;11.47;;;8.70;99.90;;;;;;5046911;28;20172;-84
2023/04/16 07:16:16;;;;;;;11.23;7.97;;;8.70;99.90;;;;;;5034540;28;20173;-81
2023/04/16 07:18:41;;;;;;;31.27;22.40;;;8.70;99.90;;;;;;5036580;28;20207;-83
2023/04/16 07:21:07;;;;;;;8.73;7.37;;;8.70;99.90;;;;;;5035171;28;20264;-81
2023/04/16 07:23:33;;;;;;;8.30;7.00;;;8.70;99.90;;;;;;5035086;28;20589;-83
2023/04/16 07:25:58;;;;;;;8.73;7.10;;;8.70;99.90;;;;;;5035458;28;20176;-82
2023/04/16 07:28:24;;;;;;;9.23;7.33;;;8.70;99.90;;;;;;5036332;28;20220;-82
2023/04/16 07:30:50;;;;;;;9.23;7.63;;;8.70;99.90;;;;;;5036035;28;20685;-82
2023/04/16 07:33:15;;;;;;;9.10;7.17;;;8.70;99.90;;;;;;5037479;28;20686;-82
2023/04/16 07:35:41;;;;;;;9.57;7.30;;;8.70;99.90;;;;;;5036603;28;20174;-83
2023/04/16 07:38:06;;;;;;;15.53;10.97;;;8.80;99.90;;;;;;5035440;28;20644;-82
2023/04/16 07:40:32;;;;;;;8.03;7.10;;;8.80;99.90;;;;;;5036864;28;20239;-82
2023/04/16 07:42:58;;;;;;;8.47;7.10;;;8.80;99.90;;;;;;5052077;28;20268;-83
2023/04/16 07:45:23;;;;;;;9.57;7.50;;;8.80;99.90;;;;;;5035329;28;20256;-83
2023/04/16 07:47:49;;;;;;;16.30;11.90;;;8.80;99.90;;;;;;5036542;28;20234;-83
2023/04/16 07:50:15;;;;;;;9.40;7.47;;;8.80;99.90;;;;;;5034591;28;20197;-83
2023/04/16 07:52:42;;;;;;;14.60;10.87;;;8.80;99.90;;;;;;5036166;28;20167;-83
2023/04/16 07:55:08;;;;;;;12.63;9.93;;;8.80;99.90;;;;;;5036263;28;20178;-83
2023/04/16 07:57:34;;;;;;;10.63;8.20;;;8.80;99.90;;;;;;5036562;28;20181;-82
2023/04/16 08:00:01;;;;;;;12.63;10.73;;;8.80;99.90;;;;;;5036187;28;20201;-82
2023/04/16 08:02:26;;;;;;;9.53;8.30;;;8.80;99.90;;;;;;5035013;28;20185;-82
2023/04/16 08:04:52;;;;;;;10.93;8.77;;;8.70;99.90;;;;;;5034640;28;20197;-82
2023/04/16 08:07:17;;;;;;;10.90;8.87;;;8.70;99.90;;;;;;5034707;28;20181;-82
2023/04/16 08:09:53;;;;;;;12.03;9.77;;;8.70;99.90;;;;;;5034414;28;20626;-83
2023/04/16 08:12:19;;;;;;;10.63;8.63;;;8.70;99.90;;;;;;5036919;28;20182;-83
2023/04/16 08:14:46;;;;;;;11.67;8.77;;;8.80;99.90;;;;;;5034208;28;20560;-83
2023/04/16 08:17:12;;;;;;;11.83;8.80;;;8.80;99.90;;;;;;5044226;28;20221;-82
2023/04/16 08:19:37;;;;;;;13.17;9.53;;;8.80;99.90;;;;;;5043332;28;20201;-82
2023/04/16 08:22:03;;;;;;;14.37;10.20;;;8.80;99.90;;;;;;5049758;28;20177;-82
2023/04/16 08:24:29;;;;;;;12.13;10.20;;;8.80;99.90;;;;;;5032724;28;20691;-84
2023/04/16 08:26:54;;;;;;;14.03;10.17;;;8.70;99.90;;;;;;5031639;28;20185;-84
2023/04/16 08:29:20;;;;;;;11.93;10.03;;;8.70;99.90;;;;;;5033745;28;20193;-83
2023/04/16 08:31:46;;;;;;;13.43;10.80;;;8.80;99.90;;;;;;5033660;28;20177;-84
2023/04/16 08:34:13;;;;;;;13.27;11.27;;;8.80;99.90;;;;;;5032584;28;20175;-84
2023/04/16 08:36:39;;;;;;;13.53;11.03;;;8.80;99.90;;;;;;5032523;28;20184;-85
2023/04/16 08:39:05;;;;;;;12.77;10.57;;;8.80;99.90;;;;;;5032625;28;20221;-83
2023/04/16 08:41:33;;;;;;;13.00;10.30;;;8.90;99.90;;;;;;5033584;28;20188;-84
2023/04/16 08:44:01;;;;;;;13.30;10.53;;;8.90;99.90;;;;;;5033670;28;20201;-83
2023/04/16 08:46:28;;;;;;;13.70;11.20;;;8.90;99.90;;;;;;5032607;28;20185;-84
2023/04/16 08:48:55;;;;;;;13.57;10.57;;;8.90;99.90;;;;;;5032876;28;20263;-83
2023/04/16 08:51:22;;;;;;;13.63;11.13;;;8.90;99.90;;;;;;5033197;28;20185;-82
2023/04/16 08:53:52;;;;;;;39.10;28.03;;;8.90;99.90;;;;;;5032396;28;20233;-83
2023/04/16 08:56:20;;;;;;;22.90;16.47;;;9.00;99.90;;;;;;5038867;28;20195;-84
2023/04/16 08:58:48;;;;;;;12.43;9.97;;;9.00;99.90;;;;;;5031754;28;20570;-84
2023/04/16 09:01:16;;;;;;;13.83;10.70;;;9.00;99.90;;;;;;5031889;28;20186;-84
2023/04/16 09:03:46;;;;;;;16.13;12.23;;;9.00;99.90;;;;;;5033065;28;20193;-84
2023/04/16 09:06:13;;;;;;;13.70;11.47;;;9.00;99.90;;;;;;5049759;28;20206;-83
2023/04/16 09:08:40;;;;;;;14.80;11.60;;;9.00;99.90;;;;;;5032140;28;20193;-84
2023/04/16 09:11:06;;;;;;;13.93;11.43;;;9.00;99.90;;;;;;5031680;28;20176;-84
2023/04/16 09:13:32;;;;;;;16.70;11.87;;;9.00;99.90;;;;;;5031816;28;20225;-84
2023/04/16 09:15:58;;;;;;;15.47;11.27;;;9.00;99.90;;;;;;5031708;28;20178;-84
2023/04/16 09:18:24;;;;;;;14.90;11.77;;;9.00;99.90;;;;;;5031785;28;20522;-84
2023/04/16 09:20:50;;;;;;;14.40;11.67;;;8.90;99.90;;;;;;5032680;28;20526;-84
2023/04/16 09:23:17;;;;;;;14.00;11.33;;;8.90;99.90;;;;;;5033077;28;20209;-84
2023/04/16 09:25:42;;;;;;;16.33;10.97;;;8.90;99.90;;;;;;5032787;28;20177;-84
2023/04/16 09:28:09;;;;;;;14.63;10.50;;;8.90;99.90;;;;;;5032546;28;20173;-84
2023/04/16 09:30:36;;;;;;;13.20;10.70;;;8.80;99.90;;;;;;5032714;28;20173;-84
2023/04/16 09:33:15;;;;;;;13.23;10.80;;;8.80;99.90;;;;;;5032946;28;20181;-84
2023/04/16 09:35:46;;;;;;;12.87;10.53;;;8.80;99.90;;;;;;5031411;28;20176;-84
2023/04/16 09:38:11;;;;;;;13.23;10.77;;;8.80;99.90;;;;;;5032476;28;20199;-83
2023/04/16 09:40:38;;;;;;;13.70;11.07;;;8.80;99.90;;;;;;5047811;28;20231;-83
2023/04/16 09:43:10;;;;;;;15.23;11.30;;;8.80;99.90;;;;;;5031504;28;20311;-83
2023/04/16 09:45:53;;;;;;;31.63;22.67;;;8.80;99.90;;;;;;5015066;28;20268;-84
2023/04/16 09:48:29;;;;;;;14.00;11.03;;;8.80;99.90;;;;;;5032997;28;20177;-84
2023/04/16 09:50:55;;;;;;;15.00;11.07;;;8.80;99.90;;;;;;5034115;28;20180;-83
2023/04/16 09:53:29;;;;;;;16.93;13.67;;;8.80;99.90;;;;;;5048770;28;20192;-82
2023/04/16 09:56:03;;;;;;;14.97;11.07;;;8.80;99.90;;;;;;5033865;28;20246;-83
2023/04/16 09:58:29;;;;;;;14.57;11.13;;;8.80;99.90;;;;;;5027080;28;20195;-83
2023/04/16 10:01:16;;;;;;;14.90;11.90;;;8.80;99.90;;;;;;5023861;28;20183;-83
2023/04/16 10:03:42;;;;;;;15.63;11.57;;;8.80;99.90;;;;;;5024728;28;20295;-83
2023/04/16 10:06:17;;;;;;;16.20;12.40;;;8.80;99.90;;;;;;5032884;28;20260;-83
2023/04/16 10:08:50;;;;;;;16.17;12.67;;;8.80;99.90;;;;;;5012987;28;20189;-83
2023/04/16 10:11:17;;;;;;;16.60;11.93;;;8.80;99.90;;;;;;5011885;28;20221;-84
2023/04/16 10:13:42;;;;;;;14.20;11.53;;;8.80;99.90;;;;;;5013118;28;20181;-83
2023/04/16 10:16:08;;;;;;;15.07;11.17;;;8.80;99.90;;;;;;5012708;28;20269;-84
2023/04/16 10:18:39;;;;;;;23.93;17.57;;;8.80;99.90;;;;;;5028898;28;20210;-81
2023/04/16 10:21:06;;;;;;;14.07;10.77;;;8.80;99.90;;;;;;5030463;28;20232;-81
2023/04/16 10:23:33;;;;;;;13.07;10.33;;;9.20;99.90;;;;;;5016387;28;20185;-81
2023/04/16 10:26:00;;;;;;;10.77;9.20;;;9.40;99.90;;;;;;5031842;28;20186;-82
2023/04/16 10:28:28;;;;;;;12.73;9.23;;;9.60;99.90;;;;;;5031917;28;20178;-82
2023/04/16 10:30:55;;;;;;;12.53;9.40;;;9.90;99.90;;;;;;5032857;28;20194;-82
2023/04/16 10:33:26;;;;;;;12.40;9.93;;;10.00;99.90;;;;;;5016024;28;20166;-82
2023/04/16 10:36:15;;;;;;;12.73;9.97;;;10.10;99.90;;;;;;5031367;28;20199;-80
2023/04/16 10:38:46;;;;;;;12.37;9.40;;;9.80;99.90;;;;;;5014918;28;20213;-83
2023/04/16 10:41:12;;;;;;;11.67;9.10;;;9.60;99.90;;;;;;5015832;28;20175;-83
2023/04/16 10:43:40;;;;;;;12.37;9.63;;;9.70;99.90;;;;;;5015700;28;20217;-82
2023/04/16 10:46:31;;;;;;;11.90;9.93;;;9.70;99.90;;;;;;5029510;28;20657;-83
2023/04/16 10:49:02;;;;;;;14.73;11.57;;;9.60;99.90;;;;;;5013512;28;20283;-85
2023/04/16 10:51:34;;;;;;;13.93;10.30;;;9.40;99.90;;;;;;5029591;28;20229;-86
2023/04/16 10:54:11;;;;;;;11.83;10.03;;;10.50;99.90;;;;;;5030662;28;20174;-85
2023/04/16 10:56:37;;;;;;;14.77;11.23;;;10.90;99.90;;;;;;5014829;28;20190;-84
2023/04/16 10:59:08;;;;;;;12.83;10.63;;;10.70;99.90;;;;;;5030934;28;20282;-84
2023/04/16 11:01:41;;;;;;;13.53;10.67;;;10.40;99.90;;;;;;5030799;28;20232;-84
2023/04/16 11:04:19;;;;;;;12.43;10.33;;;10.00;99.90;;;;;;5015585;28;20202;-84
2023/04/16 11:07:03;;;;;;;12.63;10.63;;;9.70;99.90;;;;;;5014439;28;20206;-84
2023/04/16 11:09:51;;;;;;;13.73;10.67;;;9.50;99.90;;;;;;5014306;28;20571;-84
2023/04/16 11:12:19;;;;;;;14.43;12.53;;;9.30;99.90;;;;;;5014455;28;20213;-84
2023/04/16 11:14:57;;;;;;;13.70;10.97;;;9.20;99.90;;;;;;5015395;28;20543;-84
2023/04/16 11:17:28;;;;;;;12.50;10.53;;;9.10;99.90;;;;;;5015776;28;20179;-84
2023/04/16 11:19:54;;;;;;;14.17;10.80;;;9.10;99.90;;;;;;5030580;28;20191;-84
2023/04/16 11:22:20;;;;;;;14.50;11.63;;;9.10;99.90;;;;;;5015301;28;20202;-84
2023/04/16 11:24:53;;;;;;;12.97;10.37;;;9.00;99.90;;;;;;5030374;28;20687;-84
2023/04/16 11:27:19;;;;;;;14.10;10.53;;;9.00;99.90;;;;;;5015233;28;20167;-84
2023/04/16 11:29:45;;;;;;;12.90;10.10;;;9.00;99.90;;;;;;5030104;28;20187;-84
2023/04/16 11:32:21;;;;;;;12.13;10.17;;;9.00;99.90;;;;;;5030636;28;20187;-84
2023/04/16 11:34:46;;;;;;;14.83;11.03;;;8.90;99.90;;;;;;5015518;28;20231;-84
2023/04/16 11:37:12;;;;;;;12.73;10.23;;;8.90;99.90;;;;;;5015039;28;20269;-84
2023/04/16 11:39:51;;;;;;;14.00;11.03;;;8.90;99.90;;;;;;5014598;28;20202;-83
2023/04/16 11:42:21;;;;;;;15.00;11.23;;;8.90;99.90;;;;;;5014932;28;20186;-84
2023/04/16 11:44:52;;;;;;;13.83;11.80;;;8.80;99.90;;;;;;5030217;28;20207;-84
2023/04/16 11:47:17;;;;;;;14.20;11.20;;;8.90;99.90;;;;;;5030409;28;20175;-84
2023/04/16 11:49:43;;;;;;;13.73;10.43;;;8.90;99.90;;;;;;5030007;28;20197;-84
2023/04/16 11:52:08;;;;;;;12.50;9.43;;;8.90;99.90;;;;;;5029987;28;20664;-83
2023/04/16 11:54:35;;;;;;;12.90;9.70;;;9.00;99.90;;;;;;5014677;28;20174;-84
2023/04/16 11:57:03;;;;;;;11.83;9.33;;;9.00;99.90;;;;;;5013397;28;20253;-83
2023/04/16 11:59:29;;;;;;;12.53;8.60;;;;;;;;;;5014855;28;20228;-84
2023/04/16 12:01:55;;;;;;;11.07;9.43;;;9.10;99.90;;;;;;5014505;28;20192;-84
2023/04/16 12:04:25;;;;;;;12.47;9.90;;;9.10;99.90;;;;;;5014795;28;20203;-84
2023/04/16 12:07:03;;;;;;;10.83;8.37;;;9.10;99.90;;;;;;5014352;28;20711;-84
2023/04/16 12:09:29;;;;;;;17.67;14.90;;;9.10;99.90;;;;;;5013186;28;20198;-84
2023/04/16 12:11:55;;;;;;;14.30;12.30;;;9.10;99.90;;;;;;5014842;28;20185;-83
2023/04/16 12:14:22;;;;;;;9.13;7.67;;;9.00;99.90;;;;;;5014235;28;20186;-84
2023/04/16 12:16:47;;;;;;;10.93;8.60;;;9.00;99.90;;;;;;5013095;28;20174;-83
2023/04/16 12:19:14;;;;;;;10.80;8.90;;;8.90;99.90;;;;;;5012930;28;20256;-84
2023/04/16 12:21:45;;;;;;;9.67;8.10;;;8.90;99.90;;;;;;5013898;28;20182;-83
2023/04/16 12:24:12;;;;;;;12.27;9.80;;;8.90;99.90;;;;;;5014109;28;20250;-84
2023/04/16 12:26:51;;;;;;;14.30;12.07;;;8.90;99.90;;;;;;5014044;28;20174;-82
2023/04/16 12:29:23;;;;;;;15.20;12.23;;;9.00;99.90;;;;;;5029329;28;20194;-83
2023/04/16 12:31:50;;;;;;;9.73;7.67;;;9.00;99.90;;;;;;5029240;28;20179;-84
2023/04/16 12:34:16;;;;;;;9.07;7.60;;;9.00;99.90;;;;;;5013965;28;20266;-83
2023/04/16 12:36:43;;;;;;;9.57;7.60;;;9.00;99.90;;;;;;5029304;28;20183;-84
2023/04/16 12:39:09;;;;;;;10.27;7.70;;;8.90;99.90;;;;;;5012589;28;20211;-83